Time;durP1;ratioP1;P1;durP2;ratioP2;P2;SDS_P1;SDS_P2;PMS_P1;PMS_P2;Temp;Humidity;BMP_temperature;BMP_pressure;BME280_temperature;BME280_humidity;BME280_pressure;Samples;Min_cycle;Max_cycle;Signal;HPM_P1;HPM_P2
2023/01/21 00:00:06;;;;;;;39.33;19.35;;;;;;;1.54;73.72;100732.78;5030934;28;20062;-79
2023/01/21 00:02:33;;;;;;;41.42;20.00;;;;;;;1.51;73.88;100735.38;5013005;28;20049;-79
2023/01/21 00:04:59;;;;;;;38.92;20.50;;;;;;;1.48;73.73;100732.78;5030556;28;20057;-79
2023/01/21 00:07:25;;;;;;;42.30;21.85;;;;;;;1.46;73.66;100739.72;5030217;28;20053;-80
2023/01/21 00:09:52;;;;;;;37.05;19.48;;;;;;;1.42;73.46;100742.31;5030285;28;20056;-80
2023/01/21 00:12:18;;;;;;;40.72;21.27;;;;;;;1.41;74.33;100744.91;5029231;28;20060;-79
2023/01/21 00:14:45;;;;;;;42.55;19.27;;;;;;;1.39;74.25;100749.25;5029890;28;20499;-80
2023/01/21 00:17:11;;;;;;;37.03;19.55;;;;;;;1.37;73.65;100759.63;5011764;28;20111;-80
2023/01/21 00:19:37;;;;;;;42.22;20.85;;;;;;;1.37;73.90;100767.41;5030085;28;20049;-80
2023/01/21 00:22:04;;;;;;;43.33;20.20;;;;;;;1.34;73.71;100770.00;5030094;28;20179;-80
2023/01/21 00:24:30;;;;;;;41.80;21.00;;;;;;;1.33;74.24;100770.88;5029868;28;20057;-80
2023/01/21 00:26:57;;;;;;;44.13;21.20;;;;;;;1.32;74.19;100776.94;5029433;28;20570;-80
2023/01/21 00:29:23;;;;;;;40.85;20.02;;;;;;;1.31;74.21;100780.41;5012492;28;20058;-80
2023/01/21 00:31:49;;;;;;;40.30;19.35;;;;;;;1.29;73.73;100790.78;5030125;28;20053;-80
2023/01/21 00:34:16;;;;;;;42.53;20.67;;;;;;;1.28;74.09;100783.00;5012436;28;20057;-80
2023/01/21 00:36:42;;;;;;;39.85;21.02;;;;;;;1.27;73.51;100800.28;5029879;28;20069;-80
2023/01/21 00:39:09;;;;;;;39.38;20.30;;;;;;;1.25;74.04;100801.16;5029902;28;20120;-80
2023/01/21 00:41:36;;;;;;;42.70;21.88;;;;;;;1.24;73.78;100802.88;5012217;28;20084;-80
2023/01/21 00:44:03;;;;;;;38.10;19.38;;;;;;;1.23;74.06;100808.94;5012154;28;20515;-80
2023/01/21 00:46:30;;;;;;;46.10;20.48;;;;;;;1.22;74.53;100812.41;5029331;28;20561;-80
2023/01/21 00:48:59;;;;;;;37.38;20.02;;;;;;;1.21;74.07;100807.22;5011855;28;20140;-80
2023/01/21 00:51:25;;;;;;;40.40;19.75;;;;;;;1.21;73.83;100812.41;5012121;28;20107;-80
2023/01/21 00:53:52;;;;;;;37.78;20.67;;;;;;;1.19;73.95;100814.16;5029646;28;20058;-80
2023/01/21 00:56:18;;;;;;;43.67;20.70;;;;;;;1.19;74.20;100817.59;5029601;28;20471;-80
2023/01/21 00:58:45;;;;;;;35.72;18.27;;;;;;;1.18;73.87;100826.25;5029277;28;20053;-80
2023/01/21 01:01:18;;;;;;;38.17;19.13;;;;;;;1.16;73.78;100834.03;5029545;28;20156;-79
2023/01/21 01:03:46;;;;;;;38.47;19.40;;;;;;;1.17;73.89;100834.91;5011910;28;20053;-80
2023/01/21 01:06:18;;;;;;;39.58;20.27;;;;;;;1.15;73.56;100834.91;5011733;28;20058;-80
2023/01/21 01:08:46;;;;;;;36.42;19.75;;;;;;;1.16;74.02;100839.22;5029621;28;20057;-79
2023/01/21 01:11:13;;;;;;;38.70;19.67;;;;;;;1.15;73.86;100844.38;5029727;28;20053;-79
2023/01/21 01:13:39;;;;;;;42.75;19.70;;;;;;;1.13;73.79;100836.59;5029750;28;20123;-80
2023/01/21 01:16:06;;;;;;;42.38;21.55;;;;;;;1.12;73.93;100845.25;5029311;28;20061;-80
2023/01/21 01:18:35;;;;;;;37.25;20.20;;;;;;;1.11;73.98;100848.72;5029374;28;20073;-80
2023/01/21 01:21:03;;;;;;;35.80;19.65;;;;;;;1.10;73.76;100857.38;5029306;28;20492;-81
2023/01/21 01:23:29;;;;;;;43.08;20.65;;;;;;;1.10;74.06;100859.09;5029347;28;20427;-80
2023/01/21 01:26:01;;;;;;;36.55;19.38;;;;;;;1.08;73.49;100863.44;5029195;28;20065;-80
2023/01/21 01:28:28;;;;;;;33.50;16.17;;;;;;;1.06;73.95;100871.19;5029259;28;20058;-80
2023/01/21 01:30:55;;;;;;;42.17;21.02;;;;;;;1.07;73.77;100879.81;5029114;28;20068;-80
2023/01/21 01:33:23;;;;;;;37.42;20.42;;;;;;;1.05;73.92;100874.66;5029192;28;20483;-80
2023/01/21 01:35:49;;;;;;;47.78;21.30;;;;;;;1.02;74.20;100880.69;5028932;28;20504;-79
2023/01/21 01:38:19;;;;;;;43.83;21.85;;;;;;;1.02;73.79;100879.84;5029259;28;20073;-80
2023/01/21 01:40:46;;;;;;;42.25;21.80;;;;;;;1.00;74.27;100887.63;5029064;28;20514;-80
2023/01/21 01:43:48;;;;;;;47.47;22.23;;;;;;;0.97;73.71;100886.75;5029225;28;20057;-80
2023/01/21 01:49:14;;;;;;;44.88;21.25;;;;;;;0.97;74.04;100903.16;4997681;23;20107;-79
2023/01/21 01:51:50;;;;;;;42.35;21.88;;;;;;;0.97;74.03;100915.28;5029889;28;20057;-78
2023/01/21 01:54:21;;;;;;;47.10;23.33;;;;;;;0.96;74.39;100916.13;5030217;28;20341;-79
2023/01/21 01:56:53;;;;;;;44.97;22.98;;;;;;;0.96;74.67;100923.91;5011986;28;20096;-78
2023/01/21 01:59:20;;;;;;;50.50;22.60;;;;;;;0.95;74.47;100915.28;5030057;28;20490;-78
2023/01/21 02:01:46;;;;;;;47.55;23.13;;;;;;;0.96;74.45;100926.50;5033032;28;20092;-78
2023/01/21 02:04:19;;;;;;;47.83;24.88;;;;;;;0.94;74.42;100923.03;5033911;28;20057;-78
2023/01/21 02:06:47;;;;;;;46.45;23.13;;;;;;;0.95;74.39;100924.75;5033604;28;20103;-78
2023/01/21 02:09:14;;;;;;;45.47;22.92;;;;;;;0.94;74.59;100925.63;5033641;28;20060;-78
2023/01/21 02:11:40;;;;;;;47.05;23.73;;;;;;;0.92;74.04;100925.63;5033000;28;20060;-79
2023/01/21 02:14:07;;;;;;;47.28;23.52;;;;;;;0.90;74.31;100923.03;5033709;28;20045;-79
2023/01/21 02:16:33;;;;;;;51.15;23.60;;;;;;;0.91;74.21;100931.69;5033257;28;20136;-79
2023/01/21 02:19:13;;;;;;;50.10;24.15;;;;;;;0.88;73.94;100927.34;5033630;28;20069;-79
2023/01/21 02:21:49;;;;;;;48.22;23.70;;;;;;;0.90;74.07;100936.00;5033440;28;20054;-79
2023/01/21 02:24:43;;;;;;;46.25;24.27;;;;;;;0.91;74.84;100929.94;5033642;28;20111;-79
2023/01/21 02:27:28;;;;;;;46.97;22.38;;;;;;;0.93;74.22;100927.34;5015879;28;20067;-79
2023/01/21 02:30:07;;;;;;;43.70;21.83;;;;;;;0.90;73.96;100933.41;5033253;28;20421;-79
2023/01/21 02:33:00;;;;;;;50.65;23.52;;;;;;;0.90;74.18;100927.38;5033416;28;20057;-78
2023/01/21 02:35:33;;;;;;;;;;;;;;;0.93;73.69;100926.50;5033698;28;20049;-79
2023/01/21 02:38:14;;;;;;;44.20;19.90;;;;;;;0.95;74.91;100929.94;5033158;28;20456;-79
2023/01/21 02:41:02;;;;;;;46.33;21.88;;;;;;;0.94;74.76;100938.59;5033080;28;20056;-79
2023/01/21 02:44:06;;;;;;;49.75;23.25;;;;;;;0.90;74.69;100943.75;5033252;28;20089;-79
2023/01/21 02:46:43;;;;;;;48.75;22.80;;;;;;;0.91;74.84;100942.91;5032883;28;20057;-79
2023/01/21 02:49:21;;;;;;;47.90;24.45;;;;;;;0.94;74.36;100954.16;5033207;28;20144;-79
2023/01/21 02:51:49;;;;;;;50.05;24.98;;;;;;;0.94;74.92;100960.22;5032941;28;20061;-79
2023/01/21 02:54:38;;;;;;;51.90;25.20;;;;;;;0.91;74.43;100961.03;5032882;28;20059;-79
2023/01/21 02:57:11;;;;;;;51.13;24.10;;;;;;;0.95;74.23;100966.25;5032411;28;20061;-79
2023/01/21 02:59:41;;;;;;;47.50;23.38;;;;;;;0.95;74.76;100967.13;5032793;28;20469;-79
2023/01/21 03:02:16;;;;;;;51.03;25.90;;;;;;;0.95;74.59;100979.22;5032882;28;20127;-79
2023/01/21 03:05:05;;;;;;;49.42;24.10;;;;;;;0.96;74.82;100968.84;5032727;28;20045;-78
2023/01/21 03:07:40;;;;;;;52.55;25.40;;;;;;;0.96;74.44;100976.63;5011960;28;20136;-79
2023/01/21 03:10:33;;;;;;;51.00;23.95;;;;;;;0.95;74.19;100974.03;5032626;28;20053;-79
2023/01/21 03:13:10;;;;;;;48.00;22.77;;;;;;;0.96;74.89;100973.16;5031887;28;20498;-79
2023/01/21 03:18:41;;;;;;;51.72;23.90;;;;;;;0.97;74.19;100974.91;5032346;28;20057;-78
2023/01/21 03:21:14;;;;;;;49.67;23.65;;;;;;;0.97;75.08;100973.16;5014935;28;20211;-78
2023/01/21 03:23:46;;;;;;;52.45;26.05;;;;;;;0.97;74.53;100975.75;5032363;28;20057;-78
2023/01/21 03:26:18;;;;;;;57.87;25.50;;;;;;;0.98;74.91;100981.81;5014807;28;20144;-78
2023/01/21 03:28:48;;;;;;;38.27;18.90;;;;;;;1.02;75.20;100980.97;5032039;28;20054;-79
2023/01/21 03:31:20;;;;;;;56.47;24.40;;;;;;;1.02;75.67;100983.56;5014740;28;21029;-78
2023/01/21 03:33:51;;;;;;;53.22;26.08;;;;;;;1.05;76.16;100975.78;5032282;28;20054;-78
2023/01/21 03:36:30;;;;;;;54.58;26.60;;;;;;;1.08;76.02;100980.97;5014510;28;20065;-79
2023/01/21 03:39:01;;;;;;;54.78;26.80;;;;;;;1.14;75.99;100975.81;5031827;28;20071;-78
2023/01/21 03:41:33;;;;;;;59.38;27.23;;;;;;;1.18;76.76;100979.25;5032021;28;20065;-78
2023/01/21 03:43:59;;;;;;;58.95;27.52;;;;;;;1.23;76.34;100979.28;5032031;28;20116;-79
2023/01/21 03:46:33;;;;;;;62.65;28.35;;;;;;;1.25;76.40;100986.22;5031874;28;20053;-79
2023/01/21 03:49:03;;;;;;;58.75;27.63;;;;;;;1.30;76.76;100983.59;5031729;28;20075;-79
2023/01/21 03:51:37;;;;;;;59.22;27.73;;;;;;;1.34;76.34;100987.09;5031753;28;20056;-79
2023/01/21 03:54:04;;;;;;;56.55;27.80;;;;;;;1.40;76.58;100987.97;5031882;28;20143;-80
2023/01/21 03:56:31;;;;;;;59.10;28.13;;;;;;;1.42;77.08;100988.81;5031728;28;20077;-79
2023/01/21 03:58:57;;;;;;;60.85;28.55;;;;;;;1.47;76.31;100996.59;5014146;28;20053;-78
2023/01/21 04:01:24;;;;;;;59.55;28.60;;;;;;;1.50;76.12;100995.75;5031699;28;20101;-79
2023/01/21 04:03:50;;;;;;;58.50;28.15;;;;;;;1.53;76.73;100998.34;5031436;28;20049;-79
2023/01/21 04:06:19;;;;;;;59.47;29.63;;;;;;;1.56;76.21;100996.59;5031572;28;20057;-79
2023/01/21 04:08:46;;;;;;;58.90;27.35;;;;;;;1.60;76.64;101000.06;5013865;28;20064;-79
2023/01/21 04:11:13;;;;;;;62.38;31.15;;;;;;;1.63;76.78;101000.06;5031388;28;20402;-79
2023/01/21 04:13:39;;;;;;;62.25;30.75;;;;;;;1.66;76.18;100992.28;5031324;28;20092;-79
2023/01/21 04:16:06;;;;;;;61.38;28.63;;;;;;;1.68;76.29;100989.66;5031148;28;20156;-79
2023/01/21 04:18:33;;;;;;;61.35;30.95;;;;;;;1.71;76.52;100991.44;5030952;28;20096;-79
2023/01/21 04:21:00;;;;;;;64.63;31.73;;;;;;;1.74;76.36;101000.06;5031388;28;20136;-79
2023/01/21 04:23:26;;;;;;;61.33;29.85;;;;;;;1.75;76.63;100996.59;5030559;28;20060;-79
2023/01/21 04:25:53;;;;;;;55.92;28.98;;;;;;;1.77;76.17;100997.47;5031100;28;20107;-79
2023/01/21 04:28:20;;;;;;;60.47;29.60;;;;;;;1.78;76.19;100994.00;5031017;28;20056;-79
2023/01/21 04:30:47;;;;;;;62.42;30.98;;;;;;;1.82;76.42;100997.47;5013324;28;20057;-77
2023/01/21 04:33:14;;;;;;;60.40;30.13;;;;;;;1.85;75.76;101001.78;5030944;28;20081;-77
2023/01/21 04:35:41;;;;;;;61.47;30.67;;;;;;;1.86;75.94;101006.97;5030887;28;20054;-78
2023/01/21 04:38:07;;;;;;;62.08;30.17;;;;;;;1.89;75.99;101006.09;5030911;28;20061;-78
2023/01/21 04:40:34;;;;;;;58.90;28.75;;;;;;;1.90;76.13;101011.31;5030900;28;20061;-77
2023/01/21 04:43:00;;;;;;;58.97;30.38;;;;;;;1.91;76.30;101007.84;5030880;28;20049;-77
2023/01/21 04:45:27;;;;;;;59.17;29.00;;;;;;;1.93;75.79;101013.91;5030645;28;20812;-78
2023/01/21 04:47:54;;;;;;;60.05;29.48;;;;;;;1.94;76.43;101013.03;5030543;28;20493;-78
2023/01/21 04:50:20;;;;;;;60.63;28.95;;;;;;;1.97;76.87;101013.91;5030688;28;20053;-77
2023/01/21 04:52:47;;;;;;;60.80;29.20;;;;;;;1.99;76.36;101019.97;5030792;28;20037;-77
2023/01/21 04:55:13;;;;;;;62.25;29.60;;;;;;;2.01;76.43;101019.09;5030723;28;20453;-78
2023/01/21 04:57:40;;;;;;;59.50;29.55;;;;;;;2.03;76.39;101021.69;5030689;28;20049;-77
2023/01/21 05:00:07;;;;;;;57.92;29.05;;;;;;;2.05;76.43;101014.75;5030517;28;20498;-78
2023/01/21 05:02:34;;;;;;;64.55;31.45;;;;;;;2.06;75.81;101017.34;5030822;28;20057;-78
2023/01/21 05:05:01;;;;;;;60.53;29.05;;;;;;;2.08;76.21;101014.75;5030570;28;20140;-78
2023/01/21 05:07:27;;;;;;;53.55;27.15;;;;;;;2.10;76.06;101020.81;5030539;28;20046;-77
2023/01/21 05:09:54;;;;;;;57.53;27.55;;;;;;;2.12;75.96;101029.47;5030546;28;20480;-78
2023/01/21 05:12:20;;;;;;;58.88;29.10;;;;;;;2.13;76.33;101022.56;5030330;28;20056;-78
2023/01/21 05:14:47;;;;;;;57.80;28.42;;;;;;;2.14;75.91;101026.88;5030301;28;20061;-77
2023/01/21 05:17:13;;;;;;;53.85;26.85;;;;;;;2.15;76.09;101034.66;5030483;28;20410;-78
2023/01/21 05:19:40;;;;;;;59.03;28.50;;;;;;;2.17;76.08;101040.72;5030536;28;20058;-78
2023/01/21 05:22:06;;;;;;;58.83;28.23;;;;;;;2.19;76.30;101043.31;5030421;28;20425;-77
2023/01/21 05:24:33;;;;;;;61.70;29.10;;;;;;;2.20;75.70;101047.63;5030374;28;20548;-77
2023/01/21 05:27:00;;;;;;;57.30;28.58;;;;;;;2.22;76.04;101043.31;5030175;28;20053;-77
2023/01/21 05:29:26;;;;;;;58.03;28.23;;;;;;;2.22;75.58;101051.94;5030309;28;20144;-78
2023/01/21 05:31:53;;;;;;;61.35;29.75;;;;;;;2.24;75.54;101058.91;5030147;28;20487;-78
2023/01/21 05:34:19;;;;;;;55.47;28.90;;;;;;;2.24;75.60;101059.75;5031407;28;20465;-77
2023/01/21 05:36:46;;;;;;;55.80;28.17;;;;;;;2.25;75.36;101058.03;5034156;28;20053;-78
2023/01/21 05:39:12;;;;;;;54.10;27.83;;;;;;;2.25;75.88;101074.50;5016712;28;20069;-77
2023/01/21 05:41:39;;;;;;;52.30;27.35;;;;;;;2.25;75.83;101071.03;5034196;28;20076;-77
2023/01/21 05:44:07;;;;;;;56.20;26.27;;;;;;;2.26;75.72;101075.34;5034181;28;20057;-77
2023/01/21 05:46:34;;;;;;;54.58;27.20;;;;;;;2.27;75.80;101074.47;5034023;28;20141;-77
2023/01/21 05:49:01;;;;;;;60.70;28.23;;;;;;;2.28;76.25;101082.25;5034359;28;20065;-78
2023/01/21 05:51:27;;;;;;;70.25;26.10;;;;;;;2.30;75.97;101082.28;5033907;28;20065;-78
2023/01/21 05:53:54;;;;;;;52.42;25.75;;;;;;;2.31;75.98;101091.78;5033998;28;20045;-78
2023/01/21 05:56:21;;;;;;;53.08;27.38;;;;;;;2.33;76.45;101088.31;5033704;28;20063;-77
2023/01/21 05:58:47;;;;;;;59.00;27.67;;;;;;;2.36;75.75;101082.28;5033659;28;20049;-77
2023/01/21 06:01:14;;;;;;;54.60;27.38;;;;;;;2.38;76.36;101090.03;5033832;28;20107;-78
2023/01/21 06:03:40;;;;;;;55.88;27.58;;;;;;;2.40;76.32;101094.41;5033940;28;20064;-78
2023/01/21 06:06:07;;;;;;;52.42;27.25;;;;;;;2.43;76.30;101102.16;5033623;28;20053;-78
2023/01/21 06:08:34;;;;;;;56.63;28.05;;;;;;;2.45;75.79;101104.78;5033536;28;20071;-78
2023/01/21 06:11:00;;;;;;;52.22;26.85;;;;;;;2.46;75.92;101107.38;5033522;28;20148;-78
2023/01/21 06:13:27;;;;;;;54.67;27.20;;;;;;;2.48;75.97;101112.56;5033759;28;20064;-78
2023/01/21 06:15:57;;;;;;;54.60;27.98;;;;;;;2.50;76.04;101112.56;5033256;28;20057;-78
2023/01/21 06:18:24;;;;;;;48.95;24.15;;;;;;;2.51;75.64;101116.91;5033539;28;20057;-77
2023/01/21 06:20:50;;;;;;;56.88;27.50;;;;;;;2.53;75.91;101117.75;5033420;28;20057;-77
2023/01/21 06:23:17;;;;;;;53.13;26.83;;;;;;;2.54;75.77;101127.31;5033456;28;20058;-77
2023/01/21 06:25:43;;;;;;;51.65;25.08;;;;;;;2.55;75.86;101129.03;5033161;28;20053;-77
2023/01/21 06:28:10;;;;;;;49.83;25.13;;;;;;;2.57;75.89;101129.88;5033342;28;20053;-77
2023/01/21 06:30:38;;;;;;;51.70;24.35;;;;;;;2.58;75.80;101134.22;5033518;28;20108;-77
2023/01/21 06:33:04;;;;;;;45.03;23.25;;;;;;;2.59;75.86;101138.56;5030774;28;20050;-78
2023/01/21 06:35:31;;;;;;;50.53;25.67;;;;;;;2.62;75.76;101132.47;5032837;28;20057;-77
2023/01/21 06:37:58;;;;;;;47.53;23.63;;;;;;;2.62;75.84;101141.16;5025028;28;20128;-78
2023/01/21 06:40:25;;;;;;;42.17;22.48;;;;;;;2.63;76.29;101137.69;5033321;28;20128;-77
2023/01/21 06:42:53;;;;;;;46.78;22.67;;;;;;;2.65;75.90;101145.47;5033214;28;20064;-77
2023/01/21 06:45:19;;;;;;;39.78;22.48;;;;;;;2.66;75.95;101142.88;5033079;28;20432;-77
2023/01/21 06:47:46;;;;;;;41.53;21.45;;;;;;;2.68;75.95;101137.66;5032275;28;20150;-77
2023/01/21 06:50:15;;;;;;;41.28;20.50;;;;;;;2.69;75.68;101136.81;5032894;28;20050;-77
2023/01/21 06:52:44;;;;;;;35.15;19.40;;;;;;;2.70;75.71;101136.78;5032737;28;20053;-77
2023/01/21 06:55:12;;;;;;;38.90;19.77;;;;;;;2.72;75.93;101142.84;5011628;28;20132;-78
2023/01/21 06:57:39;;;;;;;40.17;21.15;;;;;;;2.75;76.28;101144.59;5012934;28;20093;-77
2023/01/21 07:00:07;;;;;;;34.95;18.95;;;;;;;2.77;76.09;101152.38;5025928;28;20914;-77
2023/01/21 07:02:34;;;;;;;37.15;19.27;;;;;;;2.78;75.71;101144.59;5028618;28;20088;-77
2023/01/21 07:05:01;;;;;;;35.40;19.25;;;;;;;2.80;75.65;101149.78;5031077;28;20046;-77
2023/01/21 07:07:27;;;;;;;38.53;20.08;;;;;;;2.81;75.96;101157.56;5031743;28;20058;-77
2023/01/21 07:09:54;;;;;;;36.00;19.15;;;;;;;2.83;75.87;101152.34;5024940;28;20049;-77
2023/01/21 07:12:20;;;;;;;37.88;20.08;;;;;;;2.84;75.83;101170.56;5024646;28;20137;-77
2023/01/21 07:14:47;;;;;;;35.30;19.65;;;;;;;2.87;75.52;101172.28;5031221;28;20050;-77
2023/01/21 07:17:15;;;;;;;34.90;18.48;;;;;;;2.90;76.05;101172.28;5032314;28;20429;-77
2023/01/21 07:19:41;;;;;;;37.25;19.77;;;;;;;2.90;76.09;101169.69;5032323;28;20077;-76
2023/01/21 07:22:08;;;;;;;33.60;18.10;;;;;;;2.92;75.54;101175.75;5032558;28;20152;-77
2023/01/21 07:24:36;;;;;;;37.35;19.50;;;;;;;2.95;76.04;101185.31;5029827;28;20441;-77
2023/01/21 07:27:04;;;;;;;34.03;18.75;;;;;;;2.96;75.82;101181.81;5031925;28;20041;-77
2023/01/21 07:29:31;;;;;;;37.83;19.40;;;;;;;2.97;75.51;101187.03;5032179;28;20084;-77
2023/01/21 07:31:58;;;;;;;31.35;18.23;;;;;;;2.98;75.77;101186.16;5032124;28;20053;-77
2023/01/21 07:34:24;;;;;;;37.53;19.88;;;;;;;2.99;75.33;101187.88;5029706;28;20053;-77
2023/01/21 07:36:51;;;;;;;35.15;18.65;;;;;;;2.99;75.50;101193.06;5023359;28;20054;-77
2023/01/21 07:39:17;;;;;;;36.75;18.58;;;;;;;3.02;75.73;101204.38;5031441;28;20140;-77
2023/01/21 07:41:44;;;;;;;35.35;18.38;;;;;;;3.00;75.40;101205.22;5014333;28;20060;-77
2023/01/21 07:44:11;;;;;;;33.42;18.88;;;;;;;3.00;75.53;101204.38;5014398;28;20410;-77
2023/01/21 07:46:37;;;;;;;33.05;18.20;;;;;;;3.00;75.74;101209.56;5031627;28;20046;-77
2023/01/21 07:49:04;;;;;;;35.13;18.80;;;;;;;2.98;75.49;101204.38;5104731;22;20053;-81
2023/01/21 07:51:31;;;;;;;30.00;17.33;;;;;;;3.00;75.50;101204.38;5015688;28;20169;-78
2023/01/21 07:53:57;;;;;;;29.63;17.30;;;;;;;3.00;75.36;101204.38;5015703;28;20064;-79
2023/01/21 07:56:25;;;;;;;28.67;16.20;;;;;;;3.01;75.40;101208.69;5015540;28;20140;-79
2023/01/21 07:58:52;;;;;;;26.77;16.60;;;;;;;3.02;75.52;101214.78;5031981;28;20136;-78
2023/01/21 08:01:18;;;;;;;31.15;16.85;;;;;;;3.00;75.62;101213.00;5015246;28;20504;-79
2023/01/21 08:03:45;;;;;;;25.17;15.98;;;;;;;3.00;75.47;101213.00;5015271;28;20053;-79
2023/01/21 08:06:11;;;;;;;28.60;16.45;;;;;;;3.02;75.54;101218.22;5015315;28;20476;-79
2023/01/21 08:08:40;;;;;;;29.63;16.73;;;;;;;3.03;75.67;101221.69;5013680;28;20065;-78
2023/01/21 08:11:07;;;;;;;28.50;15.82;;;;;;;3.04;75.80;101226.91;5014740;28;20054;-78
2023/01/21 08:13:33;;;;;;;28.70;16.23;;;;;;;3.06;75.68;101219.94;5031973;28;20057;-78
2023/01/21 08:16:00;;;;;;;28.17;16.83;;;;;;;3.08;75.74;101223.44;5014823;28;20057;-78
2023/01/21 08:18:26;;;;;;;26.88;16.15;;;;;;;3.11;76.07;101232.97;5014927;28;20065;-78
2023/01/21 08:20:54;;;;;;;26.20;16.40;;;;;;;3.11;76.09;101236.41;5032693;28;20057;-78
2023/01/21 08:23:21;;;;;;;27.75;15.88;;;;;;;3.14;75.84;101240.72;5032776;28;20053;-79
2023/01/21 08:25:47;;;;;;;26.45;15.90;;;;;;;3.16;75.88;101244.22;5032487;28;20057;-78
2023/01/21 08:28:14;;;;;;;27.98;16.35;;;;;;;3.16;76.17;101249.41;5014578;28;20057;-79
2023/01/21 08:30:40;;;;;;;29.23;16.63;;;;;;;3.19;75.91;101245.94;5014794;28;20068;-78
2023/01/21 08:33:07;;;;;;;30.70;17.58;;;;;;;3.19;75.71;101249.44;5014657;28;20577;-78
2023/01/21 08:35:34;;;;;;;27.40;16.27;;;;;;;3.21;75.78;101258.06;5032360;28;20061;-78
2023/01/21 08:38:01;;;;;;;30.52;16.00;;;;;;;3.23;75.92;101256.34;5014661;28;20057;-78
2023/01/21 08:40:29;;;;;;;28.17;17.38;;;;;;;3.24;75.84;101258.09;5014968;28;20057;-81
2023/01/21 08:42:59;;;;;;;30.90;16.92;;;;;;;3.22;75.33;101270.22;5032200;28;20050;-78
2023/01/21 08:45:27;;;;;;;31.60;17.90;;;;;;;3.25;75.78;101272.81;5014331;28;20511;-78
2023/01/21 08:47:54;;;;;;;31.35;17.63;;;;;;;3.27;75.60;101278.03;5031983;28;20057;-79
2023/01/21 08:50:21;;;;;;;30.65;18.88;;;;;;;3.28;75.58;101281.50;5014730;28;20069;-79
2023/01/21 08:52:55;;;;;;;31.90;18.58;;;;;;;3.26;74.85;101284.94;5014632;28;20128;-78
2023/01/21 08:55:26;;;;;;;35.00;18.92;;;;;;;3.30;76.20;101284.97;5031940;28;20462;-79
2023/01/21 08:57:54;;;;;;;39.85;20.25;;;;;;;3.32;76.25;101289.28;5014439;28;20586;-78
2023/01/21 09:00:22;;;;;;;35.72;20.35;;;;;;;3.34;76.25;101282.34;5014491;28;20491;-78
2023/01/21 09:02:49;;;;;;;37.70;20.80;;;;;;;3.36;75.79;101288.41;5014516;28;20617;-78
2023/01/21 09:05:17;;;;;;;38.70;20.42;;;;;;;3.38;76.27;101291.00;5014347;28;20527;-78
2023/01/21 09:07:45;;;;;;;38.50;21.40;;;;;;;3.40;75.82;101302.28;5031788;28;20053;-79
2023/01/21 09:10:12;;;;;;;39.85;20.70;;;;;;;3.43;76.09;101291.03;5014001;28;20140;-78
2023/01/21 09:12:41;;;;;;;36.78;20.77;;;;;;;3.43;75.47;101294.47;5014497;28;20057;-78
2023/01/21 09:15:08;;;;;;;41.67;22.40;;;;;;;3.47;75.62;101303.13;5031978;28;20050;-78
2023/01/21 09:17:34;;;;;;;41.60;22.90;;;;;;;3.47;75.53;101295.31;5014267;28;20058;-79
2023/01/21 09:20:01;;;;;;;38.72;21.75;;;;;;;3.48;75.47;101307.50;5014260;28;20516;-81
2023/01/21 09:22:27;;;;;;;44.75;24.08;;;;;;;3.46;75.51;101297.06;5014329;28;20500;-81
2023/01/21 09:24:54;;;;;;;48.67;24.02;;;;;;;3.46;75.68;101312.69;5014030;28;20136;-78
2023/01/21 09:27:26;;;;;;;45.97;24.30;;;;;;;3.47;75.54;101310.94;5014033;28;20567;-78
2023/01/21 09:29:53;;;;;;;49.58;25.02;;;;;;;3.48;75.72;101317.91;5032014;28;20085;-79
2023/01/21 09:32:20;;;;;;;42.05;23.35;;;;;;;3.48;75.91;101315.31;5031610;28;20050;-78
2023/01/21 09:34:46;;;;;;;42.83;24.02;;;;;;;3.50;75.85;101310.94;5014147;28;20053;-78
2023/01/21 09:37:13;;;;;;;46.30;25.23;;;;;;;3.52;76.43;101306.63;5014042;28;20068;-79
2023/01/21 09:39:39;;;;;;;43.90;23.05;;;;;;;3.55;75.93;101313.53;5031753;28;20061;-79
2023/01/21 09:42:18;;;;;;;48.15;26.05;;;;;;;3.55;75.15;101323.97;5014269;28;20100;-81
2023/01/21 09:44:49;;;;;;;49.15;25.52;;;;;;;3.57;75.45;101327.41;5031564;28;20507;-78
2023/01/21 09:47:32;;;;;;;49.55;25.20;;;;;;;3.55;74.66;101317.00;5031343;28;20064;-79
2023/01/21 09:50:04;;;;;;;34.57;18.57;;;;;;;3.58;75.04;101336.94;5013998;28;20073;-78
2023/01/21 09:52:44;;;;;;;46.47;25.05;;;;;;;3.58;74.68;101337.84;4998338;28;20057;-78
2023/01/21 09:55:21;;;;;;;47.25;25.30;;;;;;;3.54;74.69;101336.09;5031299;28;20446;-79
2023/01/21 09:58:12;;;;;;;50.53;25.73;;;;;;;3.55;75.16;101340.44;5014036;28;20458;-81
2023/01/21 10:00:46;;;;;;;42.30;22.98;;;;;;;3.57;75.64;101343.91;5013804;28;20053;-80
2023/01/21 10:03:25;;;;;;;45.03;24.98;;;;;;;3.59;75.49;101338.72;5013767;28;20508;-81
2023/01/21 10:05:51;;;;;;;49.75;26.48;;;;;;;3.61;75.87;101339.56;5013979;28;20483;-80
2023/01/21 10:08:32;;;;;;;47.15;24.33;;;;;;;3.57;74.68;101345.63;5031302;28;20065;-80
2023/01/21 10:11:19;;;;;;;46.15;24.33;;;;;;;3.63;76.22;101340.44;5013929;28;20065;-78
2023/01/21 10:14:07;;;;;;;50.13;25.45;;;;;;;3.61;75.00;101342.16;5013759;28;20046;-78
2023/01/21 10:16:48;;;;;;;43.88;24.63;;;;;;;3.66;75.89;101345.63;5013557;28;20057;-81
2023/01/21 10:19:23;;;;;;;45.47;24.77;;;;;;;3.65;75.27;101349.97;5031260;28;20064;-81
2023/01/21 10:21:56;;;;;;;47.67;24.15;;;;;;;3.69;75.75;101353.44;5032761;28;20504;-78
2023/01/21 10:24:24;;;;;;;;;;;;;;;3.70;74.34;101352.56;5017815;28;20046;-78
2023/01/21 10:26:52;;;;;;;44.42;21.73;;;;;;;3.75;75.82;101353.44;5034301;28;20399;-80
2023/01/21 10:29:23;;;;;;;45.05;24.27;;;;;;;3.73;75.62;101354.28;5034643;28;20064;-78
2023/01/21 10:31:58;;;;;;;48.40;24.88;;;;;;;3.71;75.31;101351.69;5034909;28;20054;-80
2023/01/21 10:34:31;;;;;;;47.78;25.25;;;;;;;3.73;75.87;101356.88;5017272;28;20103;-80
2023/01/21 10:37:25;;;;;;;46.33;26.00;;;;;;;3.76;75.99;101362.09;5016831;28;20423;-81
2023/01/21 10:40:16;;;;;;;47.15;25.02;;;;;;;3.75;74.79;101366.44;5034422;28;20061;-80
2023/01/21 10:42:58;;;;;;;43.15;23.98;;;;;;;3.77;75.50;101363.81;5034549;28;20049;-80
2023/01/21 10:45:46;;;;;;;46.78;24.58;;;;;;;3.76;74.91;101360.38;5034199;28;20050;-80
2023/01/21 10:48:36;;;;;;;43.95;24.30;;;;;;;3.76;74.79;101370.78;5034116;28;20061;-81
2023/01/21 10:51:34;;;;;;;52.60;24.85;;;;;;;3.76;74.94;101360.38;5016843;28;20119;-81
2023/01/21 10:54:34;;;;;;;50.47;25.48;;;;;;;3.77;74.81;101356.88;5034238;28;20049;-80
2023/01/21 10:57:23;;;;;;;46.78;24.92;;;;;;;3.81;75.43;101356.88;5016569;28;20057;-80
2023/01/21 10:59:51;;;;;;;48.60;24.65;;;;;;;3.84;76.23;101349.91;5016793;28;20124;-80
2023/01/21 11:02:24;;;;;;;44.67;24.38;;;;;;;3.88;76.41;101354.25;5016579;28;20057;-80
2023/01/21 11:04:51;;;;;;;48.95;26.67;;;;;;;3.90;76.26;101356.84;5016369;28;20058;-80
2023/01/21 11:07:20;;;;;;;47.75;26.73;;;;;;;3.93;75.67;101361.19;5033959;28;20050;-81
2023/01/21 11:09:48;;;;;;;45.22;25.05;;;;;;;3.93;75.64;101358.56;5034097;28;20464;-80
2023/01/21 11:12:19;;;;;;;42.88;24.08;;;;;;;3.93;74.93;101358.56;5033871;28;20053;-80
2023/01/21 11:15:04;;;;;;;44.50;23.58;;;;;;;3.90;74.69;101355.09;5033954;28;20103;-78
2023/01/21 11:17:36;;;;;;;42.80;23.85;;;;;;;3.93;75.05;101359.47;5033633;28;20405;-80
2023/01/21 11:20:20;;;;;;;47.35;24.15;;;;;;;3.92;75.17;101352.47;5015958;28;20531;-80
2023/01/21 11:22:48;;;;;;;42.85;23.55;;;;;;;3.93;75.87;101355.97;5034142;28;20069;-80
2023/01/21 11:25:36;;;;;;;44.90;23.75;;;;;;;3.90;74.65;101359.47;5015977;28;20053;-80
2023/01/21 11:28:04;;;;;;;43.67;22.95;;;;;;;3.91;75.94;101350.75;5016043;28;20089;-78
2023/01/21 11:30:36;;;;;;;47.10;25.25;;;;;;;3.90;75.34;101354.25;5016266;28;20061;-78
2023/01/21 11:33:26;;;;;;;43.80;22.98;;;;;;;3.90;75.19;101354.25;5017633;28;20045;-80
2023/01/21 11:35:54;;;;;;;41.05;23.35;;;;;;;3.93;75.55;101348.16;5015731;28;20049;-80